createdAt,value
2018-02-11T00:01:53.562Z,3.15
2018-02-11T00:04:21.052Z,2.15
2018-02-11T00:06:48.529Z,2.75
2018-02-11T00:09:16.026Z,3.80
2018-02-11T00:11:43.493Z,2.40
2018-02-11T00:14:11.368Z,2.25
2018-02-11T00:16:39.653Z,2.90
2018-02-11T00:19:07.906Z,2.60
2018-02-11T00:21:35.470Z,2.85
2018-02-11T00:24:02.953Z,2.35
2018-02-11T00:26:30.433Z,2.60
2018-02-11T00:28:57.969Z,2.20
2018-02-11T00:31:26.229Z,2.83
2018-02-11T00:33:54.475Z,2.60
2018-02-11T00:36:21.973Z,2.05
2018-02-11T00:38:50.303Z,2.58
2018-02-11T00:41:18.633Z,2.10
2018-02-11T00:43:46.891Z,1.90
2018-02-11T00:46:15.965Z,1.83
2018-02-11T00:48:43.464Z,1.75
2018-02-11T00:51:11.733Z,2.10
2018-02-11T00:53:39.998Z,2.05
2018-02-11T00:56:08.254Z,1.70
2018-02-11T00:58:35.784Z,1.73
2018-02-11T01:01:03.265Z,1.75
2018-02-11T01:03:30.762Z,2.53
2018-02-11T01:05:59.032Z,1.40
2018-02-11T01:08:27.449Z,1.80
2018-02-11T01:10:54.950Z,1.70
2018-02-11T01:13:22.442Z,1.60
2018-02-11T01:15:50.698Z,2.10
2018-02-11T01:18:18.170Z,1.90
2018-02-11T01:20:46.440Z,1.77
2018-02-11T01:23:14.687Z,1.75
2018-02-11T01:25:42.229Z,1.65
2018-02-11T01:28:10.457Z,1.62
2018-02-11T01:30:38.718Z,1.83
2018-02-11T01:33:06.193Z,1.17
2018-02-11T01:35:33.750Z,1.52
2018-02-11T01:38:02.019Z,1.55
2018-02-11T01:40:30.289Z,1.35
2018-02-11T01:42:57.935Z,1.52
2018-02-11T01:45:25.439Z,1.00
2018-02-11T01:47:52.924Z,1.30
2018-02-11T01:50:20.414Z,1.27
2018-02-11T01:52:48.145Z,1.33
2018-02-11T01:55:16.621Z,1.20
2018-02-11T01:57:44.958Z,1.27
2018-02-11T02:00:13.558Z,1.10
2018-02-11T02:02:41.074Z,1.15
2018-02-11T02:05:08.573Z,1.10
2018-02-11T02:07:39.814Z,1.15
2018-02-11T02:10:08.093Z,1.30
2018-02-11T02:12:36.360Z,1.12
2018-02-11T02:15:04.629Z,1.00
2018-02-11T02:17:32.106Z,1.10
2018-02-11T02:20:00.365Z,0.95
2018-02-11T02:22:27.865Z,0.90
2018-02-11T02:24:55.349Z,1.30
2018-02-11T02:27:22.837Z,0.90
2018-02-11T02:29:50.346Z,0.90
2018-02-11T02:32:17.842Z,1.08
2018-02-11T02:34:45.346Z,1.30
2018-02-11T02:37:13.021Z,1.30
2018-02-11T02:39:40.746Z,0.90
2018-02-11T02:42:08.301Z,1.20
2018-02-11T02:44:35.770Z,1.30
2018-02-11T02:47:04.054Z,1.40
2018-02-11T02:49:31.598Z,1.10
2018-02-11T02:51:59.877Z,1.05
2018-02-11T02:54:27.415Z,0.90
2018-02-11T02:56:54.894Z,1.30
2018-02-11T02:59:23.165Z,1.08
2018-02-11T03:01:50.717Z,1.10
2018-02-11T03:04:18.157Z,1.20
2018-02-11T03:06:45.641Z,1.60
2018-02-11T03:09:13.921Z,1.30
2018-02-11T03:11:42.194Z,1.20
2018-02-11T03:14:10.554Z,1.10
2018-02-11T03:16:38.081Z,1.30
2018-02-11T03:19:05.574Z,1.20
2018-02-11T03:21:33.058Z,1.45
2018-02-11T03:24:01.445Z,1.15
2018-02-11T03:26:28.961Z,1.37
2018-02-11T03:28:56.458Z,1.33
2018-02-11T03:31:25.402Z,1.40
2018-02-11T03:33:52.901Z,1.02
2018-02-11T03:36:21.177Z,1.10
2018-02-11T03:38:49.445Z,1.40
2018-02-11T03:41:16.918Z,1.37
2018-02-11T03:43:45.165Z,1.50
2018-02-11T03:46:12.692Z,1.52
2018-02-11T03:48:40.181Z,1.58
2018-02-11T03:51:08.549Z,1.87
2018-02-11T03:53:36.058Z,1.70
2018-02-11T03:56:05.258Z,1.65
2018-02-11T03:58:33.493Z,1.37
2018-02-11T04:01:00.988Z,1.70
2018-02-11T04:03:29.299Z,1.60
2018-02-11T04:05:56.770Z,1.67
2018-02-11T04:08:24.463Z,2.00
2018-02-11T04:10:52.745Z,2.17
2018-02-11T04:13:20.299Z,1.50
2018-02-11T04:15:47.782Z,2.00
2018-02-11T04:18:16.841Z,2.00
2018-02-11T04:20:44.334Z,2.30
2018-02-11T04:23:12.593Z,2.50
2018-02-11T04:25:40.068Z,2.37
2018-02-11T04:28:08.341Z,2.00
2018-02-11T04:30:36.584Z,2.45
2018-02-11T04:33:04.061Z,2.37
2018-02-11T04:35:31.559Z,2.65
2018-02-11T04:37:59.029Z,2.62
2018-02-11T04:40:26.506Z,3.75
2018-02-11T04:42:53.993Z,2.92
2018-02-11T04:45:21.473Z,3.45
2018-02-11T04:47:49.902Z,3.37
2018-02-11T04:50:17.493Z,3.30
2018-02-11T04:52:45.754Z,3.10
2018-02-11T04:55:13.265Z,3.20
2018-02-11T04:57:40.732Z,3.50
2018-02-11T05:00:08.210Z,3.55
2018-02-11T05:02:35.701Z,4.10
2018-02-11T05:05:03.177Z,4.20
2018-02-11T05:07:32.222Z,3.67
2018-02-11T05:09:59.711Z,3.50
2018-02-11T05:12:27.187Z,4.12
2018-02-11T05:14:54.653Z,3.47
2018-02-11T05:17:22.150Z,4.55
2018-02-11T05:19:49.641Z,4.20
2018-02-11T05:22:17.109Z,4.93
2018-02-11T05:24:45.420Z,5.40
2018-02-11T05:27:12.889Z,6.25
2018-02-11T05:29:40.369Z,5.87
2018-02-11T05:32:07.874Z,5.28
2018-02-11T05:34:36.113Z,5.07
2018-02-11T05:37:03.602Z,5.80
2018-02-11T05:39:31.877Z,6.00
2018-02-11T05:42:00.149Z,4.95
2018-02-11T05:44:28.419Z,6.40
2018-02-11T05:46:55.901Z,5.55
2018-02-11T05:49:23.382Z,7.00
2018-02-11T05:51:50.858Z,6.80
2018-02-11T05:54:18.353Z,7.40
2018-02-11T05:56:46.601Z,8.30
2018-02-11T05:59:14.100Z,8.25
2018-02-11T06:01:42.462Z,6.90
2018-02-11T06:04:09.968Z,7.20
2018-02-11T06:06:37.527Z,7.55
2018-02-11T06:09:05.188Z,7.37
2018-02-11T06:11:32.681Z,7.20
2018-02-11T06:14:00.163Z,6.53
2018-02-11T06:16:27.669Z,7.40
2018-02-11T06:18:55.145Z,5.70
2018-02-11T06:21:22.617Z,5.60
2018-02-11T06:23:50.138Z,7.10
2018-02-11T06:26:17.613Z,6.78
2018-02-11T06:28:45.093Z,6.35
2018-02-11T06:31:12.611Z,5.93
2018-02-11T06:33:40.121Z,6.60
2018-02-11T06:36:07.589Z,5.40
2018-02-11T06:38:35.865Z,4.68
2018-02-11T06:41:03.338Z,5.60
2018-02-11T06:43:31.593Z,6.62
2018-02-11T06:45:59.099Z,5.60
2018-02-11T06:48:26.667Z,7.75
2018-02-11T06:50:54.153Z,5.75
2018-02-11T06:53:21.649Z,7.20
2018-02-11T06:55:49.994Z,6.70
2018-02-11T06:58:18.285Z,7.30
2018-02-11T07:00:46.600Z,7.78
2018-02-11T07:03:14.075Z,9.40
2018-02-11T07:05:41.585Z,8.18
2018-02-11T07:08:09.857Z,7.55
2018-02-11T07:10:37.325Z,6.93
2018-02-11T07:13:05.573Z,6.75
2018-02-11T07:15:33.060Z,8.27
2018-02-11T07:18:01.323Z,8.50
2018-02-11T07:20:31.717Z,7.28
2018-02-11T07:22:59.221Z,8.32
2018-02-11T07:25:27.485Z,8.60
2018-02-11T07:27:54.958Z,7.57
2018-02-11T07:30:23.221Z,7.85
2018-02-11T07:32:50.695Z,6.90
2018-02-11T07:35:19.081Z,6.00
2018-02-11T07:37:46.628Z,5.20
2018-02-11T07:40:14.881Z,5.45
2018-02-11T07:42:42.365Z,5.53
2018-02-11T07:45:10.753Z,7.53
2018-02-11T07:47:38.275Z,5.03
2018-02-11T07:50:05.765Z,4.90
2018-02-11T07:52:34.028Z,4.10
2018-02-11T07:55:02.266Z,5.20
2018-02-11T07:57:29.745Z,3.95
2018-02-11T07:59:57.237Z,4.90
2018-02-11T08:02:25.494Z,4.50
2018-02-11T08:04:53.813Z,5.07
2018-02-11T08:07:21.369Z,5.53
2018-02-11T08:09:48.842Z,4.70
2018-02-11T08:12:16.325Z,5.50
2018-02-11T08:14:43.813Z,5.18
2018-02-11T08:17:12.066Z,4.95
2018-02-11T08:19:39.543Z,3.65
2018-02-11T08:22:07.830Z,4.40
2018-02-11T08:24:36.094Z,4.15
2018-02-11T08:27:03.563Z,3.62
2018-02-11T08:29:31.809Z,3.47
2018-02-11T08:31:59.333Z,3.05
2018-02-11T08:34:26.809Z,3.25
2018-02-11T08:36:54.344Z,4.05
2018-02-11T08:39:21.829Z,2.17
2018-02-11T08:41:49.321Z,3.47
2018-02-11T08:44:17.596Z,3.15
2018-02-11T08:46:45.873Z,4.10
2018-02-11T08:49:14.150Z,2.85
2018-02-11T08:51:42.400Z,2.65
2018-02-11T08:54:09.890Z,2.90
2018-02-11T08:56:38.350Z,3.05
2018-02-11T08:59:05.832Z,2.87
2018-02-11T09:01:34.082Z,2.95
2018-02-11T09:04:01.563Z,3.25
2018-02-11T09:06:29.062Z,2.90
2018-02-11T09:08:56.745Z,3.35
2018-02-11T09:11:24.221Z,2.40
2018-02-11T09:13:51.697Z,3.28
2018-02-11T09:16:19.977Z,3.17
2018-02-11T09:18:48.225Z,2.42
2018-02-11T09:21:15.732Z,3.17
2018-02-11T09:23:43.998Z,2.50
2018-02-11T09:26:12.261Z,2.58
2018-02-11T09:28:40.517Z,2.70
2018-02-11T09:31:08.055Z,3.87
2018-02-11T09:33:35.533Z,2.62
2018-02-11T09:36:03.075Z,3.00
2018-02-11T09:38:30.547Z,2.22
2018-02-11T09:40:58.028Z,1.80
2018-02-11T09:43:26.285Z,3.42
2018-02-11T09:45:54.050Z,1.95
2018-02-11T09:48:21.644Z,3.05
2018-02-11T09:50:49.131Z,2.15
2018-02-11T09:53:16.649Z,2.17
2018-02-11T09:55:44.920Z,1.92
2018-02-11T09:58:12.397Z,2.60
2018-02-11T10:00:40.661Z,2.67
2018-02-11T10:03:08.929Z,3.10
2018-02-11T10:05:36.926Z,2.42
2018-02-11T10:08:05.277Z,2.80
2018-02-11T10:10:32.753Z,2.60
2018-02-11T10:13:00.994Z,2.75
2018-02-11T10:15:28.481Z,3.12
2018-02-11T10:17:56.755Z,2.95
2018-02-11T10:20:25.035Z,2.22
2018-02-11T10:22:53.285Z,2.40
2018-02-11T10:25:20.821Z,2.60
2018-02-11T10:27:48.317Z,4.30
2018-02-11T10:30:15.793Z,2.78
2018-02-11T10:32:44.305Z,4.00
2018-02-11T10:35:11.849Z,2.35
2018-02-11T10:37:39.341Z,2.00
2018-02-11T10:40:06.843Z,3.47
2018-02-11T10:42:34.394Z,2.80
2018-02-11T10:45:02.018Z,2.90
2018-02-11T10:47:31.548Z,3.10
2018-02-11T10:49:59.992Z,2.40
2018-02-11T10:52:28.810Z,2.58
2018-02-11T10:54:56.973Z,2.85
2018-02-11T10:57:24.625Z,2.40
2018-02-11T10:59:53.093Z,2.45
2018-02-11T11:02:20.893Z,2.37
2018-02-11T11:04:48.371Z,2.20
2018-02-11T11:07:15.934Z,2.80
2018-02-11T11:09:43.402Z,2.50
2018-02-11T11:12:11.645Z,2.72
2018-02-11T11:14:39.395Z,2.80
2018-02-11T11:17:06.870Z,2.42
2018-02-11T11:19:34.679Z,2.87
2018-02-11T11:22:02.287Z,1.95
2018-02-11T11:24:29.777Z,2.35
2018-02-11T11:26:57.254Z,2.20
2018-02-11T11:29:24.978Z,2.35
2018-02-11T11:31:52.462Z,2.05
2018-02-11T11:34:20.760Z,1.92
2018-02-11T11:36:49.038Z,2.50
2018-02-11T11:39:16.616Z,2.62
2018-02-11T11:41:44.098Z,2.42
2018-02-11T11:44:11.710Z,2.10
2018-02-11T11:46:46.923Z,2.58
2018-02-11T11:49:18.340Z,2.35
2018-02-11T11:51:46.157Z,1.80
2018-02-11T11:54:15.845Z,2.62
2018-02-11T11:56:43.665Z,2.28
2018-02-11T11:59:14.193Z,2.65
2018-02-11T12:01:42.550Z,1.80
2018-02-11T12:04:10.813Z,2.42
2018-02-11T12:06:39.081Z,1.73
2018-02-11T12:09:09.461Z,1.90
2018-02-11T12:11:48.633Z,1.90
2018-02-11T12:14:16.986Z,1.70
2018-02-11T12:16:45.786Z,1.70
2018-02-11T12:19:13.273Z,1.95
2018-02-11T12:21:41.542Z,1.62
2018-02-11T12:24:09.228Z,2.20
2018-02-11T12:26:36.772Z,1.80
2018-02-11T12:29:05.767Z,2.30
2018-02-11T12:31:33.553Z,2.00
2018-02-11T12:34:04.073Z,1.58
2018-02-11T12:36:32.704Z,2.00
2018-02-11T12:39:00.367Z,2.12
2018-02-11T12:41:28.784Z,2.20
2018-02-11T12:43:57.057Z,1.83
2018-02-11T12:46:25.338Z,2.03
2018-02-11T12:48:53.735Z,2.42
2018-02-11T12:51:21.242Z,2.00
2018-02-11T12:53:48.737Z,2.40
2018-02-11T12:56:16.997Z,1.90
2018-02-11T12:58:44.512Z,2.45
2018-02-11T13:01:12.029Z,2.00
2018-02-11T13:03:40.277Z,1.92
2018-02-11T13:06:07.765Z,2.40
2018-02-11T13:08:36.042Z,2.00
2018-02-11T13:11:04.297Z,1.98
2018-02-11T13:13:31.795Z,2.42
2018-02-11T13:15:59.305Z,2.15
2018-02-11T13:18:26.797Z,1.83
2018-02-11T13:20:55.235Z,2.20
2018-02-11T13:23:22.777Z,2.10
2018-02-11T13:25:50.272Z,1.60
2018-02-11T13:28:18.541Z,1.98
2018-02-11T13:30:47.641Z,2.10
2018-02-11T13:33:15.122Z,2.20
2018-02-11T13:35:43.374Z,2.47
2018-02-11T13:38:10.915Z,2.85
2018-02-11T13:40:38.425Z,2.60
2018-02-11T13:43:06.764Z,2.50
2018-02-11T13:45:34.293Z,2.17
2018-02-11T13:48:01.781Z,2.53
2018-02-11T13:50:29.365Z,2.72
2018-02-11T13:52:56.881Z,2.40
2018-02-11T13:55:24.362Z,2.33
2018-02-11T13:57:51.857Z,3.90
2018-02-11T14:00:19.379Z,2.20
2018-02-11T14:02:46.909Z,2.42
2018-02-11T14:05:14.618Z,2.65
2018-02-11T14:07:42.238Z,2.12
2018-02-11T14:10:09.753Z,2.58
2018-02-11T14:12:38.037Z,1.90
2018-02-11T14:15:06.309Z,2.50
2018-02-11T14:17:33.809Z,2.78
2018-02-11T14:20:01.314Z,1.90
2018-02-11T14:22:29.598Z,1.70
2018-02-11T14:24:57.882Z,1.80
2018-02-11T14:27:26.158Z,2.00
2018-02-11T14:29:54.479Z,2.57
2018-02-11T14:32:21.970Z,2.67
2018-02-11T14:34:49.521Z,1.60
2018-02-11T14:37:17.065Z,1.73
2018-02-11T14:39:44.638Z,1.73
2018-02-11T14:42:12.175Z,1.92
2018-02-11T14:44:39.702Z,1.70
2018-02-11T14:47:07.190Z,1.90
2018-02-11T14:49:34.678Z,2.20
2018-02-11T14:52:02.178Z,1.77
2018-02-11T14:54:29.731Z,1.58
2018-02-11T14:56:57.246Z,2.37
2018-02-11T14:59:24.729Z,1.80
2018-02-11T15:01:53.072Z,1.58
2018-02-11T15:04:20.627Z,1.70
2018-02-11T15:06:48.170Z,1.85
2018-02-11T15:09:15.650Z,1.80
2018-02-11T15:11:43.132Z,1.83
2018-02-11T15:14:10.651Z,2.05
2018-02-11T15:16:38.205Z,1.90
2018-02-11T15:19:05.787Z,1.98
2018-02-11T15:21:33.292Z,1.83
2018-02-11T15:24:00.811Z,1.80
2018-02-11T15:26:28.310Z,1.80
2018-02-11T15:28:56.594Z,1.60
2018-02-11T15:31:24.841Z,2.10
2018-02-11T15:33:52.326Z,1.80
2018-02-11T15:36:20.624Z,2.22
2018-02-11T15:38:48.109Z,1.80
2018-02-11T15:41:16.395Z,1.70
2018-02-11T15:43:43.943Z,2.15
2018-02-11T15:46:11.425Z,1.90
2018-02-11T15:48:38.962Z,1.75
2018-02-11T15:51:06.437Z,1.90
2018-02-11T15:53:33.936Z,2.30
2018-02-11T15:56:02.222Z,2.00
2018-02-11T15:58:29.712Z,1.75
2018-02-11T16:00:57.196Z,1.70
2018-02-11T16:03:24.773Z,1.50
2018-02-11T16:05:53.034Z,1.67
2018-02-11T16:08:20.534Z,1.98
2018-02-11T16:10:48.058Z,1.70
2018-02-11T16:13:15.621Z,1.92
2018-02-11T16:15:43.103Z,2.00
2018-02-11T16:18:11.377Z,2.22
2018-02-11T16:20:39.646Z,1.80
2018-02-11T16:23:07.907Z,1.90
2018-02-11T16:25:35.416Z,2.22
2018-02-11T16:28:02.940Z,2.65
2018-02-11T16:30:31.214Z,1.52
2018-02-11T16:32:59.463Z,2.00
2018-02-11T16:35:26.970Z,2.95
2018-02-11T16:37:54.489Z,2.05
2018-02-11T16:40:22.019Z,2.40
2018-02-11T16:42:49.542Z,1.83
2018-02-11T16:45:17.077Z,1.70
2018-02-11T16:47:44.604Z,2.22
2018-02-11T16:50:12.084Z,2.25
2018-02-11T16:52:39.606Z,1.50
2018-02-11T16:55:07.092Z,1.40
2018-02-11T16:57:34.568Z,1.20
2018-02-11T17:00:02.050Z,1.20
2018-02-11T17:02:29.526Z,1.10
2018-02-11T17:04:57.041Z,1.45
2018-02-11T17:07:24.525Z,1.60
2018-02-11T17:09:52.010Z,2.85
2018-02-11T17:12:19.507Z,2.10
2018-02-11T17:14:47.096Z,1.20
2018-02-11T17:17:15.358Z,1.30
2018-02-11T17:19:43.667Z,1.45
2018-02-11T17:22:11.493Z,1.45
2018-02-11T17:24:38.982Z,1.77
2018-02-11T17:27:08.825Z,1.70
2018-02-11T17:29:36.401Z,1.80
2018-02-11T17:32:03.912Z,1.58
2018-02-11T17:34:32.180Z,1.75
2018-02-11T17:37:00.465Z,1.40
2018-02-11T17:39:28.888Z,1.85
2018-02-11T17:41:56.394Z,1.55
2018-02-11T17:44:24.799Z,1.83
2018-02-11T17:46:52.513Z,1.55
2018-02-11T17:49:20.112Z,1.60
2018-02-11T17:51:47.622Z,1.60
2018-02-11T17:54:15.109Z,1.80
2018-02-11T17:56:43.386Z,1.83
2018-02-11T17:59:11.657Z,1.85
2018-02-11T18:01:39.206Z,1.62
2018-02-11T18:04:07.554Z,1.80
2018-02-11T18:06:35.098Z,1.87
2018-02-11T18:09:03.187Z,2.00
2018-02-11T18:11:30.690Z,2.50
2018-02-11T18:13:58.208Z,1.85
2018-02-11T18:16:25.668Z,1.83
2018-02-11T18:18:53.269Z,1.87
2018-02-11T18:21:21.545Z,2.42
2018-02-11T18:23:49.119Z,1.52
2018-02-11T18:26:16.633Z,1.90
2018-02-11T18:28:44.134Z,2.20
2018-02-11T18:31:12.405Z,1.62
2018-02-11T18:33:40.689Z,1.75
2018-02-11T18:36:08.952Z,1.48
2018-02-11T18:38:37.203Z,1.70
2018-02-11T18:41:05.490Z,1.50
2018-02-11T18:43:32.997Z,1.62
2018-02-11T18:46:00.637Z,1.70
2018-02-11T18:48:28.901Z,1.77
2018-02-11T18:50:57.206Z,1.92
2018-02-11T18:53:24.725Z,1.23
2018-02-11T18:55:52.264Z,1.75
2018-02-11T18:58:19.789Z,1.95
2018-02-11T19:00:47.277Z,1.77
2018-02-11T19:03:14.902Z,2.30
2018-02-11T19:05:42.408Z,2.40
2018-02-11T19:08:13.086Z,2.30
2018-02-11T19:10:41.035Z,2.03
2018-02-11T19:13:09.106Z,3.12
2018-02-11T19:15:36.767Z,2.53
2018-02-11T19:18:04.315Z,2.72
2018-02-11T19:20:31.825Z,2.70
2018-02-11T19:22:59.326Z,2.97
2018-02-11T19:25:26.846Z,2.70
2018-02-11T19:27:54.378Z,2.67
2018-02-11T19:30:22.649Z,3.87
2018-02-11T19:32:50.996Z,3.05
2018-02-11T19:35:18.516Z,3.40
2018-02-11T19:37:45.991Z,3.15
2018-02-11T19:40:13.537Z,3.30
2018-02-11T19:42:41.017Z,3.50
2018-02-11T19:45:09.822Z,2.70
2018-02-11T19:47:37.350Z,3.55
2018-02-11T19:50:04.978Z,3.37
2018-02-11T19:52:33.240Z,2.60
2018-02-11T19:55:00.741Z,2.65
2018-02-11T19:57:28.222Z,3.00
2018-02-11T19:59:55.828Z,2.42
2018-02-11T20:02:23.425Z,2.95
2018-02-11T20:04:50.963Z,3.03
2018-02-11T20:07:19.426Z,2.60
2018-02-11T20:09:47.712Z,3.25
2018-02-11T20:12:15.990Z,3.67
2018-02-11T20:14:43.635Z,3.25
2018-02-11T20:17:11.983Z,2.60
2018-02-11T20:19:39.511Z,2.90
2018-02-11T20:22:07.839Z,3.35
2018-02-11T20:24:35.334Z,3.50
2018-02-11T20:27:02.854Z,3.75
2018-02-11T20:29:30.462Z,3.10
2018-02-11T20:32:01.417Z,2.85
2018-02-11T20:34:37.168Z,2.75
2018-02-11T20:37:04.950Z,3.37
2018-02-11T20:39:33.602Z,3.80
2018-02-11T20:42:01.106Z,4.20
2018-02-11T20:44:30.094Z,5.00
2018-02-11T20:46:58.921Z,5.10
2018-02-11T20:49:26.459Z,3.75
2018-02-11T20:51:54.427Z,3.72
2018-02-11T20:54:22.117Z,3.12
2018-02-11T20:56:51.180Z,3.95
2018-02-11T20:59:18.662Z,2.90
2018-02-11T21:01:46.184Z,3.53
2018-02-11T21:04:13.686Z,2.70
2018-02-11T21:06:43.029Z,2.70
2018-02-11T21:09:13.612Z,2.85
2018-02-11T21:11:42.084Z,3.10
2018-02-11T21:14:10.885Z,2.83
2018-02-11T21:16:40.378Z,2.55
2018-02-11T21:19:08.052Z,2.12
2018-02-11T21:21:36.531Z,1.70
2018-02-11T21:24:08.507Z,2.20
2018-02-11T21:26:37.429Z,2.55
2018-02-11T21:29:07.284Z,1.85
2018-02-11T21:31:34.859Z,1.73
2018-02-11T21:34:08.729Z,1.83
2018-02-11T21:36:36.210Z,2.90
2018-02-11T21:39:09.311Z,2.10
2018-02-11T21:41:40.647Z,2.20
2018-02-11T21:44:08.602Z,2.15
2018-02-11T21:46:38.575Z,2.30
2018-02-11T21:49:07.137Z,2.05
2018-02-11T21:51:46.593Z,2.25
2018-02-11T21:54:14.508Z,2.60
2018-02-11T21:56:43.420Z,1.65
2018-02-11T21:59:17.460Z,2.17
2018-02-11T22:01:45.683Z,1.70
2018-02-11T22:04:13.258Z,1.83
2018-02-11T22:06:41.035Z,2.17
2018-02-11T22:09:08.561Z,2.20
2018-02-11T22:11:36.025Z,2.03
2018-02-11T22:14:04.999Z,2.12
2018-02-11T22:16:35.695Z,2.25
2018-02-11T22:19:03.949Z,2.30
2018-02-11T22:21:31.465Z,2.83
2018-02-11T22:23:58.945Z,4.00
2018-02-11T22:26:26.461Z,4.70
2018-02-11T22:28:54.741Z,4.80
2018-02-11T22:31:22.282Z,6.03
2018-02-11T22:33:49.789Z,5.20
2018-02-11T22:36:17.313Z,4.97
2018-02-11T22:38:45.554Z,6.70
2018-02-11T22:41:13.025Z,6.40
2018-02-11T22:43:40.537Z,7.35
2018-02-11T22:46:08.595Z,7.00
2018-02-11T22:48:36.082Z,7.60
2018-02-11T22:51:03.562Z,7.57
2018-02-11T22:53:31.164Z,8.02
2018-02-11T22:55:58.698Z,8.15
2018-02-11T22:58:26.941Z,7.50
2018-02-11T23:00:54.431Z,8.45
2018-02-11T23:03:21.941Z,8.10
2018-02-11T23:05:50.121Z,9.07
2018-02-11T23:08:17.880Z,8.02
2018-02-11T23:10:45.461Z,8.27
2018-02-11T23:13:12.940Z,7.45
2018-02-11T23:15:40.421Z,8.30
2018-02-11T23:18:08.872Z,6.82
2018-02-11T23:20:36.410Z,8.13
2018-02-11T23:23:03.893Z,6.25
2018-02-11T23:25:31.389Z,6.47
2018-02-11T23:27:58.885Z,5.57
2018-02-11T23:30:26.379Z,4.50
2018-02-11T23:32:53.986Z,5.53
2018-02-11T23:35:21.477Z,5.35
2018-02-11T23:37:48.949Z,5.30
2018-02-11T23:40:16.425Z,4.75
2018-02-11T23:42:44.681Z,4.37
2018-02-11T23:45:12.162Z,4.35
2018-02-11T23:47:40.393Z,4.12
2018-02-11T23:50:07.915Z,4.50
2018-02-11T23:52:35.393Z,3.80
2018-02-11T23:55:03.151Z,3.37
2018-02-11T23:57:30.656Z,4.50
2018-02-11T23:59:59.103Z,4.60
